sensor_id;sensor_type;location;lat;lon;timestamp;P1;durP1;ratioP1;P2;durP2;ratioP2
61144;SDS011;47026;51.208;3.288;2022-10-31T00:01:11;10.65;;;7.47;;
61144;SDS011;47026;51.208;3.288;2022-10-31T00:03:38;11.07;;;7.05;;
61144;SDS011;47026;51.208;3.288;2022-10-31T00:08:29;9.00;;;7.20;;
61144;SDS011;47026;51.208;3.288;2022-10-31T00:13:21;13.02;;;8.13;;
61144;SDS011;47026;51.208;3.288;2022-10-31T00:15:47;12.35;;;8.20;;
61144;SDS011;47026;51.208;3.288;2022-10-31T00:20:38;13.95;;;8.05;;
61144;SDS011;47026;51.208;3.288;2022-10-31T00:25:33;14.55;;;8.05;;
61144;SDS011;47026;51.208;3.288;2022-10-31T00:28:02;8.63;;;7.30;;
61144;SDS011;47026;51.208;3.288;2022-10-31T00:30:31;10.15;;;7.60;;
61144;SDS011;47026;51.208;3.288;2022-10-31T00:32:57;10.73;;;8.00;;
61144;SDS011;47026;51.208;3.288;2022-10-31T00:37:49;10.90;;;7.28;;
61144;SDS011;47026;51.208;3.288;2022-10-31T00:40:16;9.65;;;7.50;;
61144;SDS011;47026;51.208;3.288;2022-10-31T00:45:09;14.00;;;8.95;;
61144;SDS011;47026;51.208;3.288;2022-10-31T00:47:35;16.65;;;10.75;;
61144;SDS011;47026;51.208;3.288;2022-10-31T00:50:02;13.27;;;9.20;;
61144;SDS011;47026;51.208;3.288;2022-10-31T00:52:30;13.07;;;9.13;;
61144;SDS011;47026;51.208;3.288;2022-10-31T00:57:22;12.63;;;8.38;;
61144;SDS011;47026;51.208;3.288;2022-10-31T00:59:48;12.48;;;9.45;;
61144;SDS011;47026;51.208;3.288;2022-10-31T01:04:39;12.13;;;9.18;;
61144;SDS011;47026;51.208;3.288;2022-10-31T01:07:05;10.95;;;8.00;;
61144;SDS011;47026;51.208;3.288;2022-10-31T01:09:32;10.20;;;7.55;;
61144;SDS011;47026;51.208;3.288;2022-10-31T01:14:23;10.05;;;7.10;;
61144;SDS011;47026;51.208;3.288;2022-10-31T01:19:15;9.73;;;7.57;;
61144;SDS011;47026;51.208;3.288;2022-10-31T01:21:40;10.48;;;8.13;;
61144;SDS011;47026;51.208;3.288;2022-10-31T01:26:33;12.17;;;8.73;;
61144;SDS011;47026;51.208;3.288;2022-10-31T01:29:00;13.70;;;10.02;;
61144;SDS011;47026;51.208;3.288;2022-10-31T01:31:28;14.87;;;10.38;;
61144;SDS011;47026;51.208;3.288;2022-10-31T01:33:57;12.48;;;9.57;;
61144;SDS011;47026;51.208;3.288;2022-10-31T01:36:24;14.23;;;10.05;;
61144;SDS011;47026;51.208;3.288;2022-10-31T01:38:51;15.50;;;10.65;;
61144;SDS011;47026;51.208;3.288;2022-10-31T01:41:20;16.83;;;12.23;;
61144;SDS011;47026;51.208;3.288;2022-10-31T01:43:50;16.95;;;12.27;;
61144;SDS011;47026;51.208;3.288;2022-10-31T01:46:24;17.35;;;12.35;;
61144;SDS011;47026;51.208;3.288;2022-10-31T01:48:54;18.65;;;11.95;;
61144;SDS011;47026;51.208;3.288;2022-10-31T01:51:23;18.73;;;11.32;;
61144;SDS011;47026;51.208;3.288;2022-10-31T01:53:55;17.15;;;11.20;;
61144;SDS011;47026;51.208;3.288;2022-10-31T01:56:24;18.65;;;11.65;;
61144;SDS011;47026;51.208;3.288;2022-10-31T01:58:50;20.65;;;12.30;;
61144;SDS011;47026;51.208;3.288;2022-10-31T02:01:17;17.90;;;11.45;;
61144;SDS011;47026;51.208;3.288;2022-10-31T02:03:44;20.00;;;12.88;;
61144;SDS011;47026;51.208;3.288;2022-10-31T02:06:23;18.75;;;12.32;;
61144;SDS011;47026;51.208;3.288;2022-10-31T02:08:52;17.33;;;12.27;;
61144;SDS011;47026;51.208;3.288;2022-10-31T02:11:18;18.20;;;12.30;;
61144;SDS011;47026;51.208;3.288;2022-10-31T02:13:44;20.40;;;11.95;;
61144;SDS011;47026;51.208;3.288;2022-10-31T02:16:12;19.27;;;12.45;;
61144;SDS011;47026;51.208;3.288;2022-10-31T02:21:19;19.00;;;12.20;;
61144;SDS011;47026;51.208;3.288;2022-10-31T02:24:11;15.45;;;10.90;;
61144;SDS011;47026;51.208;3.288;2022-10-31T02:32:25;15.90;;;10.77;;
61144;SDS011;47026;51.208;3.288;2022-10-31T02:45:58;17.87;;;11.90;;
61144;SDS011;47026;51.208;3.288;2022-10-31T02:48:34;16.95;;;12.10;;
61144;SDS011;47026;51.208;3.288;2022-10-31T02:51:04;16.52;;;12.20;;
61144;SDS011;47026;51.208;3.288;2022-10-31T02:53:34;16.92;;;11.68;;
61144;SDS011;47026;51.208;3.288;2022-10-31T02:56:17;19.77;;;11.82;;
61144;SDS011;47026;51.208;3.288;2022-10-31T02:58:49;19.27;;;12.27;;
61144;SDS011;47026;51.208;3.288;2022-10-31T03:07:22;18.15;;;11.48;;
61144;SDS011;47026;51.208;3.288;2022-10-31T03:10:29;19.00;;;11.10;;
61144;SDS011;47026;51.208;3.288;2022-10-31T03:15:40;17.12;;;10.88;;
61144;SDS011;47026;51.208;3.288;2022-10-31T03:21:20;15.55;;;12.10;;
61144;SDS011;47026;51.208;3.288;2022-10-31T03:23:47;19.27;;;11.65;;
61144;SDS011;47026;51.208;3.288;2022-10-31T03:26:16;16.48;;;10.60;;
61144;SDS011;47026;51.208;3.288;2022-10-31T03:29:05;17.25;;;11.45;;
61144;SDS011;47026;51.208;3.288;2022-10-31T03:34:29;17.73;;;11.63;;
61144;SDS011;47026;51.208;3.288;2022-10-31T03:36:57;17.33;;;11.07;;
61144;SDS011;47026;51.208;3.288;2022-10-31T03:39:28;17.73;;;11.07;;
61144;SDS011;47026;51.208;3.288;2022-10-31T03:42:00;16.70;;;11.40;;
61144;SDS011;47026;51.208;3.288;2022-10-31T03:44:34;16.73;;;11.50;;
61144;SDS011;47026;51.208;3.288;2022-10-31T03:47:03;18.27;;;11.18;;
61144;SDS011;47026;51.208;3.288;2022-10-31T03:49:29;15.88;;;11.05;;
61144;SDS011;47026;51.208;3.288;2022-10-31T03:51:58;18.33;;;11.70;;
61144;SDS011;47026;51.208;3.288;2022-10-31T03:59:32;19.55;;;11.30;;
61144;SDS011;47026;51.208;3.288;2022-10-31T04:02:07;17.45;;;11.70;;
61144;SDS011;47026;51.208;3.288;2022-10-31T04:04:36;17.08;;;11.48;;
61144;SDS011;47026;51.208;3.288;2022-10-31T04:07:03;16.92;;;10.43;;
61144;SDS011;47026;51.208;3.288;2022-10-31T04:09:32;20.55;;;10.65;;
61144;SDS011;47026;51.208;3.288;2022-10-31T04:12:01;17.87;;;11.23;;
61144;SDS011;47026;51.208;3.288;2022-10-31T04:14:33;18.77;;;12.32;;
61144;SDS011;47026;51.208;3.288;2022-10-31T04:17:02;16.90;;;11.57;;
61144;SDS011;47026;51.208;3.288;2022-10-31T04:19:31;21.12;;;12.00;;
61144;SDS011;47026;51.208;3.288;2022-10-31T04:21:58;17.48;;;11.82;;
61144;SDS011;47026;51.208;3.288;2022-10-31T04:26:49;20.83;;;11.45;;
61144;SDS011;47026;51.208;3.288;2022-10-31T04:31:41;18.52;;;11.20;;
61144;SDS011;47026;51.208;3.288;2022-10-31T04:34:07;22.62;;;11.35;;
61144;SDS011;47026;51.208;3.288;2022-10-31T04:38:58;19.55;;;11.05;;
61144;SDS011;47026;51.208;3.288;2022-10-31T04:41:24;20.70;;;12.05;;
61144;SDS011;47026;51.208;3.288;2022-10-31T04:46:16;20.35;;;11.20;;
61144;SDS011;47026;51.208;3.288;2022-10-31T04:51:07;21.27;;;11.05;;
61144;SDS011;47026;51.208;3.288;2022-10-31T04:53:33;15.98;;;10.75;;
61144;SDS011;47026;51.208;3.288;2022-10-31T04:58:26;17.10;;;10.88;;
61144;SDS011;47026;51.208;3.288;2022-10-31T05:00:52;17.83;;;11.00;;
61144;SDS011;47026;51.208;3.288;2022-10-31T05:03:18;18.65;;;11.20;;
61144;SDS011;47026;51.208;3.288;2022-10-31T05:05:45;18.52;;;11.00;;
61144;SDS011;47026;51.208;3.288;2022-10-31T05:10:36;16.48;;;9.77;;
61144;SDS011;47026;51.208;3.288;2022-10-31T05:15:29;18.17;;;10.55;;
61144;SDS011;47026;51.208;3.288;2022-10-31T05:17:55;18.30;;;9.98;;
61144;SDS011;47026;51.208;3.288;2022-10-31T05:20:23;12.75;;;8.52;;
61144;SDS011;47026;51.208;3.288;2022-10-31T05:22:52;18.33;;;10.50;;
61144;SDS011;47026;51.208;3.288;2022-10-31T05:25:19;64.57;;;15.30;;
61144;SDS011;47026;51.208;3.288;2022-10-31T05:27:48;18.67;;;11.30;;
61144;SDS011;47026;51.208;3.288;2022-10-31T05:30:17;19.62;;;10.93;;
61144;SDS011;47026;51.208;3.288;2022-10-31T05:32:46;20.23;;;10.82;;
61144;SDS011;47026;51.208;3.288;2022-10-31T05:35:15;18.17;;;10.90;;
61144;SDS011;47026;51.208;3.288;2022-10-31T05:37:46;18.37;;;10.40;;
61144;SDS011;47026;51.208;3.288;2022-10-31T05:40:13;18.65;;;11.30;;
61144;SDS011;47026;51.208;3.288;2022-10-31T05:42:40;21.12;;;10.25;;
61144;SDS011;47026;51.208;3.288;2022-10-31T05:45:08;19.77;;;10.90;;
61144;SDS011;47026;51.208;3.288;2022-10-31T05:47:35;23.30;;;11.20;;
61144;SDS011;47026;51.208;3.288;2022-10-31T05:52:27;19.48;;;11.32;;
61144;SDS011;47026;51.208;3.288;2022-10-31T05:57:19;22.80;;;11.12;;
61144;SDS011;47026;51.208;3.288;2022-10-31T05:59:45;20.12;;;10.35;;
61144;SDS011;47026;51.208;3.288;2022-10-31T06:04:36;18.15;;;9.65;;
61144;SDS011;47026;51.208;3.288;2022-10-31T06:09:28;15.75;;;10.00;;
61144;SDS011;47026;51.208;3.288;2022-10-31T06:11:54;18.02;;;9.63;;
61144;SDS011;47026;51.208;3.288;2022-10-31T06:14:20;15.38;;;9.82;;
61144;SDS011;47026;51.208;3.288;2022-10-31T06:19:11;18.85;;;11.07;;
61144;SDS011;47026;51.208;3.288;2022-10-31T06:21:37;16.33;;;10.27;;
61144;SDS011;47026;51.208;3.288;2022-10-31T06:26:29;21.37;;;11.12;;
61144;SDS011;47026;51.208;3.288;2022-10-31T06:28:55;20.67;;;10.75;;
61144;SDS011;47026;51.208;3.288;2022-10-31T06:31:20;21.50;;;11.07;;
61144;SDS011;47026;51.208;3.288;2022-10-31T06:33:46;22.42;;;12.32;;
61144;SDS011;47026;51.208;3.288;2022-10-31T06:38:38;185.95;;;24.58;;
61144;SDS011;47026;51.208;3.288;2022-10-31T06:43:30;18.45;;;10.45;;
61144;SDS011;47026;51.208;3.288;2022-10-31T06:45:57;21.92;;;11.25;;
61144;SDS011;47026;51.208;3.288;2022-10-31T06:48:26;15.68;;;9.93;;
61144;SDS011;47026;51.208;3.288;2022-10-31T06:53:17;18.73;;;9.82;;
61144;SDS011;47026;51.208;3.288;2022-10-31T06:58:09;23.50;;;11.12;;
61144;SDS011;47026;51.208;3.288;2022-10-31T07:00:35;20.75;;;11.65;;
61144;SDS011;47026;51.208;3.288;2022-10-31T07:05:29;21.73;;;10.75;;
61144;SDS011;47026;51.208;3.288;2022-10-31T07:07:56;20.90;;;11.90;;
61144;SDS011;47026;51.208;3.288;2022-10-31T07:10:23;17.98;;;10.57;;
61144;SDS011;47026;51.208;3.288;2022-10-31T07:12:54;18.87;;;10.35;;
61144;SDS011;47026;51.208;3.288;2022-10-31T07:15:21;34.83;;;13.70;;
61144;SDS011;47026;51.208;3.288;2022-10-31T07:17:47;18.00;;;10.15;;
61144;SDS011;47026;51.208;3.288;2022-10-31T07:22:39;15.75;;;10.20;;
61144;SDS011;47026;51.208;3.288;2022-10-31T07:27:37;18.50;;;11.05;;
61144;SDS011;47026;51.208;3.288;2022-10-31T07:30:03;20.02;;;10.90;;
61144;SDS011;47026;51.208;3.288;2022-10-31T07:32:37;18.45;;;11.30;;
61144;SDS011;47026;51.208;3.288;2022-10-31T07:35:07;21.62;;;11.27;;
61144;SDS011;47026;51.208;3.288;2022-10-31T07:37:34;17.77;;;10.98;;
61144;SDS011;47026;51.208;3.288;2022-10-31T07:42:27;17.55;;;10.70;;
61144;SDS011;47026;51.208;3.288;2022-10-31T07:47:18;18.02;;;10.63;;
61144;SDS011;47026;51.208;3.288;2022-10-31T07:52:09;19.42;;;10.45;;
61144;SDS011;47026;51.208;3.288;2022-10-31T07:54:35;18.70;;;10.48;;
61144;SDS011;47026;51.208;3.288;2022-10-31T07:59:26;16.98;;;11.18;;
61144;SDS011;47026;51.208;3.288;2022-10-31T08:04:17;15.70;;;9.48;;
61144;SDS011;47026;51.208;3.288;2022-10-31T08:09:09;15.30;;;9.00;;
61144;SDS011;47026;51.208;3.288;2022-10-31T08:14:00;13.62;;;8.40;;
61144;SDS011;47026;51.208;3.288;2022-10-31T08:18:52;14.25;;;8.15;;
61144;SDS011;47026;51.208;3.288;2022-10-31T08:21:20;11.65;;;7.60;;
61144;SDS011;47026;51.208;3.288;2022-10-31T08:23:46;12.13;;;8.00;;
61144;SDS011;47026;51.208;3.288;2022-10-31T08:28:38;8.85;;;6.10;;
61144;SDS011;47026;51.208;3.288;2022-10-31T08:33:30;8.95;;;6.22;;
61144;SDS011;47026;51.208;3.288;2022-10-31T08:35:59;9.23;;;6.10;;
61144;SDS011;47026;51.208;3.288;2022-10-31T08:38:25;9.88;;;6.68;;
61144;SDS011;47026;51.208;3.288;2022-10-31T08:40:51;10.98;;;6.45;;
61144;SDS011;47026;51.208;3.288;2022-10-31T08:43:17;8.40;;;5.93;;
61144;SDS011;47026;51.208;3.288;2022-10-31T08:45:44;7.72;;;5.97;;
61144;SDS011;47026;51.208;3.288;2022-10-31T08:48:13;10.50;;;6.35;;
61144;SDS011;47026;51.208;3.288;2022-10-31T08:50:40;9.57;;;6.55;;
61144;SDS011;47026;51.208;3.288;2022-10-31T08:53:11;8.70;;;5.62;;
61144;SDS011;47026;51.208;3.288;2022-10-31T08:55:39;8.10;;;5.75;;
61144;SDS011;47026;51.208;3.288;2022-10-31T08:58:07;7.95;;;5.62;;
61144;SDS011;47026;51.208;3.288;2022-10-31T09:00:37;8.02;;;5.78;;
61144;SDS011;47026;51.208;3.288;2022-10-31T09:03:04;9.55;;;5.47;;
61144;SDS011;47026;51.208;3.288;2022-10-31T09:05:36;11.65;;;6.78;;
61144;SDS011;47026;51.208;3.288;2022-10-31T09:08:03;13.82;;;7.32;;
61144;SDS011;47026;51.208;3.288;2022-10-31T09:10:30;9.63;;;6.57;;
61144;SDS011;47026;51.208;3.288;2022-10-31T09:12:58;12.65;;;7.28;;
61144;SDS011;47026;51.208;3.288;2022-10-31T09:15:26;12.77;;;7.55;;
61144;SDS011;47026;51.208;3.288;2022-10-31T09:17:53;18.10;;;10.93;;
61144;SDS011;47026;51.208;3.288;2022-10-31T09:20:20;12.05;;;7.78;;
61144;SDS011;47026;51.208;3.288;2022-10-31T09:22:46;10.65;;;8.13;;
61144;SDS011;47026;51.208;3.288;2022-10-31T09:25:12;14.65;;;9.05;;
61144;SDS011;47026;51.208;3.288;2022-10-31T09:27:38;13.70;;;9.20;;
61144;SDS011;47026;51.208;3.288;2022-10-31T09:30:04;16.33;;;8.57;;
61144;SDS011;47026;51.208;3.288;2022-10-31T09:32:30;39.97;;;21.98;;
61144;SDS011;47026;51.208;3.288;2022-10-31T09:34:56;12.98;;;9.50;;
61144;SDS011;47026;51.208;3.288;2022-10-31T09:39:48;12.90;;;8.43;;
61144;SDS011;47026;51.208;3.288;2022-10-31T09:50:48;14.10;;;8.90;;
61144;SDS011;47026;51.208;3.288;2022-10-31T09:53:27;15.45;;;9.43;;
61144;SDS011;47026;51.208;3.288;2022-10-31T09:56:13;13.95;;;9.05;;
61144;SDS011;47026;51.208;3.288;2022-10-31T09:58:45;15.77;;;9.07;;
61144;SDS011;47026;51.208;3.288;2022-10-31T10:03:58;14.93;;;8.73;;
61144;SDS011;47026;51.208;3.288;2022-10-31T10:06:46;15.43;;;9.40;;
61144;SDS011;47026;51.208;3.288;2022-10-31T10:09:14;16.17;;;8.57;;
61144;SDS011;47026;51.208;3.288;2022-10-31T10:17:32;15.35;;;8.90;;
61144;SDS011;47026;51.208;3.288;2022-10-31T10:22:52;13.13;;;8.40;;
61144;SDS011;47026;51.208;3.288;2022-10-31T10:25:33;16.58;;;8.30;;
61144;SDS011;47026;51.208;3.288;2022-10-31T10:30:40;11.80;;;8.43;;
61144;SDS011;47026;51.208;3.288;2022-10-31T10:33:11;17.70;;;8.85;;
61144;SDS011;47026;51.208;3.288;2022-10-31T10:35:49;14.87;;;8.90;;
61144;SDS011;47026;51.208;3.288;2022-10-31T10:41:12;12.98;;;8.73;;
61144;SDS011;47026;51.208;3.288;2022-10-31T10:43:45;14.63;;;8.63;;
61144;SDS011;47026;51.208;3.288;2022-10-31T11:00:19;13.30;;;8.88;;
61144;SDS011;47026;51.208;3.288;2022-10-31T11:02:47;13.48;;;8.23;;
61144;SDS011;47026;51.208;3.288;2022-10-31T11:05:24;12.32;;;7.37;;
61144;SDS011;47026;51.208;3.288;2022-10-31T11:07:53;15.90;;;8.55;;
61144;SDS011;47026;51.208;3.288;2022-10-31T11:10:19;12.65;;;7.80;;
61144;SDS011;47026;51.208;3.288;2022-10-31T11:12:56;13.25;;;8.30;;
61144;SDS011;47026;51.208;3.288;2022-10-31T11:15:26;13.98;;;7.50;;
61144;SDS011;47026;51.208;3.288;2022-10-31T11:17:54;11.98;;;8.00;;
61144;SDS011;47026;51.208;3.288;2022-10-31T11:20:27;11.82;;;7.85;;
61144;SDS011;47026;51.208;3.288;2022-10-31T11:23:15;12.02;;;7.78;;
61144;SDS011;47026;51.208;3.288;2022-10-31T11:25:55;13.77;;;7.65;;
61144;SDS011;47026;51.208;3.288;2022-10-31T11:28:32;9.50;;;7.53;;
61144;SDS011;47026;51.208;3.288;2022-10-31T11:31:10;11.23;;;6.97;;
61144;SDS011;47026;51.208;3.288;2022-10-31T11:33:39;10.85;;;6.93;;
61144;SDS011;47026;51.208;3.288;2022-10-31T11:36:30;10.50;;;7.05;;
61144;SDS011;47026;51.208;3.288;2022-10-31T11:38:57;13.73;;;7.05;;
61144;SDS011;47026;51.208;3.288;2022-10-31T11:41:33;13.40;;;7.22;;
61144;SDS011;47026;51.208;3.288;2022-10-31T11:49:06;10.50;;;6.12;;
61144;SDS011;47026;51.208;3.288;2022-10-31T11:51:49;9.70;;;6.03;;
61144;SDS011;47026;51.208;3.288;2022-10-31T11:54:27;12.18;;;7.15;;
61144;SDS011;47026;51.208;3.288;2022-10-31T11:56:54;8.98;;;6.05;;
61144;SDS011;47026;51.208;3.288;2022-10-31T11:59:22;11.48;;;6.20;;
61144;SDS011;47026;51.208;3.288;2022-10-31T12:01:49;10.05;;;6.20;;
61144;SDS011;47026;51.208;3.288;2022-10-31T12:04:16;8.60;;;6.10;;
61144;SDS011;47026;51.208;3.288;2022-10-31T12:06:43;9.18;;;6.10;;
61144;SDS011;47026;51.208;3.288;2022-10-31T12:09:24;10.10;;;6.37;;
61144;SDS011;47026;51.208;3.288;2022-10-31T12:12:05;11.90;;;7.03;;
61144;SDS011;47026;51.208;3.288;2022-10-31T12:22:57;12.70;;;7.85;;
61144;SDS011;47026;51.208;3.288;2022-10-31T12:31:19;12.02;;;7.32;;
61144;SDS011;47026;51.208;3.288;2022-10-31T12:39:43;11.73;;;7.30;;
61144;SDS011;47026;51.208;3.288;2022-10-31T12:42:37;11.63;;;8.20;;
61144;SDS011;47026;51.208;3.288;2022-10-31T12:48:00;12.05;;;7.53;;
61144;SDS011;47026;51.208;3.288;2022-10-31T12:55:54;11.65;;;8.00;;
61144;SDS011;47026;51.208;3.288;2022-10-31T12:58:44;15.10;;;8.85;;
61144;SDS011;47026;51.208;3.288;2022-10-31T13:01:26;12.05;;;8.10;;
61144;SDS011;47026;51.208;3.288;2022-10-31T13:04:03;13.90;;;8.32;;
61144;SDS011;47026;51.208;3.288;2022-10-31T13:06:40;16.98;;;8.80;;
61144;SDS011;47026;51.208;3.288;2022-10-31T13:09:15;10.77;;;8.30;;
61144;SDS011;47026;51.208;3.288;2022-10-31T13:11:52;13.65;;;8.32;;
61144;SDS011;47026;51.208;3.288;2022-10-31T13:17:13;14.23;;;9.38;;
61144;SDS011;47026;51.208;3.288;2022-10-31T13:20:23;18.77;;;9.68;;
61144;SDS011;47026;51.208;3.288;2022-10-31T13:22:51;12.65;;;9.00;;
61144;SDS011;47026;51.208;3.288;2022-10-31T13:25:40;16.73;;;9.68;;
61144;SDS011;47026;51.208;3.288;2022-10-31T13:28:23;11.27;;;8.25;;
61144;SDS011;47026;51.208;3.288;2022-10-31T13:31:11;14.05;;;9.00;;
61144;SDS011;47026;51.208;3.288;2022-10-31T13:33:47;16.27;;;9.52;;
61144;SDS011;47026;51.208;3.288;2022-10-31T13:41:48;13.25;;;8.73;;
61144;SDS011;47026;51.208;3.288;2022-10-31T13:46:53;14.85;;;8.68;;
61144;SDS011;47026;51.208;3.288;2022-10-31T13:54:41;13.65;;;9.32;;
61144;SDS011;47026;51.208;3.288;2022-10-31T13:59:59;14.68;;;9.30;;
61144;SDS011;47026;51.208;3.288;2022-10-31T14:02:48;17.58;;;10.10;;
61144;SDS011;47026;51.208;3.288;2022-10-31T14:07:56;19.23;;;9.77;;
61144;SDS011;47026;51.208;3.288;2022-10-31T14:10:28;18.30;;;10.02;;
61144;SDS011;47026;51.208;3.288;2022-10-31T14:13:05;17.05;;;10.02;;
61144;SDS011;47026;51.208;3.288;2022-10-31T14:15:33;15.48;;;9.27;;
61144;SDS011;47026;51.208;3.288;2022-10-31T14:18:06;13.95;;;9.30;;
61144;SDS011;47026;51.208;3.288;2022-10-31T14:20:47;15.30;;;10.48;;
61144;SDS011;47026;51.208;3.288;2022-10-31T14:28:51;14.52;;;10.40;;
61144;SDS011;47026;51.208;3.288;2022-10-31T14:31:38;19.33;;;11.00;;
61144;SDS011;47026;51.208;3.288;2022-10-31T14:34:23;16.27;;;10.13;;
61144;SDS011;47026;51.208;3.288;2022-10-31T14:39:32;18.45;;;11.20;;
61144;SDS011;47026;51.208;3.288;2022-10-31T14:48:21;20.37;;;11.82;;
61144;SDS011;47026;51.208;3.288;2022-10-31T14:51:02;18.15;;;10.23;;
61144;SDS011;47026;51.208;3.288;2022-10-31T14:53:43;19.52;;;10.73;;
61144;SDS011;47026;51.208;3.288;2022-10-31T14:56:14;19.08;;;11.98;;
61144;SDS011;47026;51.208;3.288;2022-10-31T14:58:48;21.02;;;11.85;;
61144;SDS011;47026;51.208;3.288;2022-10-31T15:01:19;21.85;;;10.77;;
61144;SDS011;47026;51.208;3.288;2022-10-31T15:03:53;21.65;;;11.90;;
61144;SDS011;47026;51.208;3.288;2022-10-31T15:06:22;20.62;;;12.13;;
61144;SDS011;47026;51.208;3.288;2022-10-31T15:08:50;20.65;;;11.20;;
61144;SDS011;47026;51.208;3.288;2022-10-31T15:11:19;18.33;;;11.88;;
61144;SDS011;47026;51.208;3.288;2022-10-31T15:16:21;21.67;;;12.65;;
61144;SDS011;47026;51.208;3.288;2022-10-31T15:21:49;19.45;;;12.70;;
61144;SDS011;47026;51.208;3.288;2022-10-31T15:24:16;19.98;;;13.07;;
61144;SDS011;47026;51.208;3.288;2022-10-31T15:26:47;23.12;;;12.35;;
61144;SDS011;47026;51.208;3.288;2022-10-31T15:29:23;25.98;;;13.38;;
61144;SDS011;47026;51.208;3.288;2022-10-31T15:34:19;25.67;;;13.30;;
61144;SDS011;47026;51.208;3.288;2022-10-31T15:37:13;21.55;;;12.65;;
61144;SDS011;47026;51.208;3.288;2022-10-31T15:39:41;25.37;;;13.62;;
61144;SDS011;47026;51.208;3.288;2022-10-31T15:48:02;27.70;;;15.07;;
61144;SDS011;47026;51.208;3.288;2022-10-31T15:50:38;25.15;;;14.30;;
61144;SDS011;47026;51.208;3.288;2022-10-31T15:55:51;25.83;;;14.57;;
61144;SDS011;47026;51.208;3.288;2022-10-31T15:58:23;28.95;;;15.45;;
61144;SDS011;47026;51.208;3.288;2022-10-31T16:01:24;33.08;;;15.63;;
61144;SDS011;47026;51.208;3.288;2022-10-31T16:06:35;24.90;;;16.17;;
61144;SDS011;47026;51.208;3.288;2022-10-31T16:09:02;26.25;;;15.35;;
61144;SDS011;47026;51.208;3.288;2022-10-31T16:11:36;29.35;;;15.85;;
61144;SDS011;47026;51.208;3.288;2022-10-31T16:14:05;29.10;;;15.55;;
61144;SDS011;47026;51.208;3.288;2022-10-31T16:16:44;28.33;;;15.93;;
61144;SDS011;47026;51.208;3.288;2022-10-31T16:19:19;30.50;;;16.25;;
61144;SDS011;47026;51.208;3.288;2022-10-31T16:21:54;29.75;;;15.90;;
61144;SDS011;47026;51.208;3.288;2022-10-31T16:24:29;31.02;;;15.95;;
61144;SDS011;47026;51.208;3.288;2022-10-31T16:27:13;31.58;;;16.52;;
61144;SDS011;47026;51.208;3.288;2022-10-31T16:29:48;28.87;;;16.87;;
61144;SDS011;47026;51.208;3.288;2022-10-31T16:37:40;34.00;;;17.40;;
61144;SDS011;47026;51.208;3.288;2022-10-31T16:40:07;34.72;;;18.25;;
61144;SDS011;47026;51.208;3.288;2022-10-31T16:42:41;35.42;;;17.42;;
61144;SDS011;47026;51.208;3.288;2022-10-31T16:45:08;30.85;;;18.37;;
61144;SDS011;47026;51.208;3.288;2022-10-31T16:47:41;33.17;;;17.55;;
61144;SDS011;47026;51.208;3.288;2022-10-31T16:50:21;35.10;;;17.85;;
61144;SDS011;47026;51.208;3.288;2022-10-31T16:52:48;30.85;;;18.10;;
61144;SDS011;47026;51.208;3.288;2022-10-31T16:55:15;35.33;;;18.48;;
61144;SDS011;47026;51.208;3.288;2022-10-31T16:57:45;34.10;;;16.73;;
61144;SDS011;47026;51.208;3.288;2022-10-31T17:00:16;27.05;;;17.02;;
61144;SDS011;47026;51.208;3.288;2022-10-31T17:02:47;32.28;;;17.45;;
61144;SDS011;47026;51.208;3.288;2022-10-31T17:05:15;30.23;;;17.62;;
61144;SDS011;47026;51.208;3.288;2022-10-31T17:07:43;35.90;;;18.20;;
61144;SDS011;47026;51.208;3.288;2022-10-31T17:10:10;39.60;;;18.87;;
61144;SDS011;47026;51.208;3.288;2022-10-31T17:12:39;33.83;;;19.62;;
61144;SDS011;47026;51.208;3.288;2022-10-31T17:15:14;46.55;;;31.12;;
61144;SDS011;47026;51.208;3.288;2022-10-31T17:17:46;31.83;;;19.00;;
61144;SDS011;47026;51.208;3.288;2022-10-31T17:20:16;33.40;;;18.85;;
61144;SDS011;47026;51.208;3.288;2022-10-31T17:22:53;34.58;;;18.27;;
61144;SDS011;47026;51.208;3.288;2022-10-31T17:25:20;40.20;;;17.25;;
61144;SDS011;47026;51.208;3.288;2022-10-31T17:27:48;32.50;;;17.75;;
61144;SDS011;47026;51.208;3.288;2022-10-31T17:30:15;32.83;;;16.90;;
61144;SDS011;47026;51.208;3.288;2022-10-31T17:32:42;32.67;;;16.80;;
61144;SDS011;47026;51.208;3.288;2022-10-31T17:35:10;58.17;;;35.15;;
61144;SDS011;47026;51.208;3.288;2022-10-31T17:37:41;47.62;;;24.23;;
61144;SDS011;47026;51.208;3.288;2022-10-31T17:40:08;47.88;;;26.20;;
61144;SDS011;47026;51.208;3.288;2022-10-31T17:42:35;38.03;;;19.35;;
61144;SDS011;47026;51.208;3.288;2022-10-31T17:47:27;28.55;;;15.27;;
61144;SDS011;47026;51.208;3.288;2022-10-31T17:52:19;27.37;;;14.60;;
61144;SDS011;47026;51.208;3.288;2022-10-31T17:54:45;29.80;;;13.90;;
61144;SDS011;47026;51.208;3.288;2022-10-31T17:59:37;26.10;;;14.18;;
61144;SDS011;47026;51.208;3.288;2022-10-31T18:02:03;24.30;;;14.15;;
61144;SDS011;47026;51.208;3.288;2022-10-31T18:04:33;24.60;;;13.00;;
61144;SDS011;47026;51.208;3.288;2022-10-31T18:06:59;32.15;;;16.48;;
61144;SDS011;47026;51.208;3.288;2022-10-31T18:09:25;32.33;;;18.35;;
61144;SDS011;47026;51.208;3.288;2022-10-31T18:14:17;60.67;;;32.15;;
61144;SDS011;47026;51.208;3.288;2022-10-31T18:19:09;27.62;;;14.07;;
61144;SDS011;47026;51.208;3.288;2022-10-31T18:21:37;25.02;;;13.25;;
61144;SDS011;47026;51.208;3.288;2022-10-31T18:24:03;25.83;;;14.05;;
61144;SDS011;47026;51.208;3.288;2022-10-31T18:26:29;26.92;;;13.62;;
61144;SDS011;47026;51.208;3.288;2022-10-31T18:28:56;21.33;;;12.93;;
61144;SDS011;47026;51.208;3.288;2022-10-31T18:31:22;27.30;;;15.18;;
61144;SDS011;47026;51.208;3.288;2022-10-31T18:33:50;24.95;;;14.73;;
61144;SDS011;47026;51.208;3.288;2022-10-31T18:36:20;18.95;;;11.23;;
61144;SDS011;47026;51.208;3.288;2022-10-31T18:38:46;19.58;;;11.85;;
61144;SDS011;47026;51.208;3.288;2022-10-31T18:43:39;18.75;;;11.95;;
61144;SDS011;47026;51.208;3.288;2022-10-31T18:46:06;20.20;;;11.50;;
61144;SDS011;47026;51.208;3.288;2022-10-31T18:48:35;22.40;;;12.25;;
61144;SDS011;47026;51.208;3.288;2022-10-31T18:51:04;22.52;;;12.27;;
61144;SDS011;47026;51.208;3.288;2022-10-31T18:53:32;27.48;;;12.40;;
61144;SDS011;47026;51.208;3.288;2022-10-31T18:58:25;19.63;;;10.67;;
61144;SDS011;47026;51.208;3.288;2022-10-31T19:00:52;20.45;;;12.20;;
61144;SDS011;47026;51.208;3.288;2022-10-31T19:03:18;18.30;;;11.12;;
61144;SDS011;47026;51.208;3.288;2022-10-31T19:05:47;21.10;;;11.95;;
61144;SDS011;47026;51.208;3.288;2022-10-31T19:08:14;18.15;;;9.75;;
61144;SDS011;47026;51.208;3.288;2022-10-31T19:13:06;17.40;;;8.65;;
61144;SDS011;47026;51.208;3.288;2022-10-31T19:15:32;18.00;;;9.75;;
61144;SDS011;47026;51.208;3.288;2022-10-31T19:17:59;15.90;;;9.55;;
61144;SDS011;47026;51.208;3.288;2022-10-31T19:20:25;18.83;;;8.77;;
61144;SDS011;47026;51.208;3.288;2022-10-31T19:25:17;16.77;;;9.60;;
61144;SDS011;47026;51.208;3.288;2022-10-31T19:27:43;24.92;;;13.57;;
61144;SDS011;47026;51.208;3.288;2022-10-31T19:32:35;21.00;;;10.73;;
61144;SDS011;47026;51.208;3.288;2022-10-31T19:35:02;24.42;;;15.65;;
61144;SDS011;47026;51.208;3.288;2022-10-31T19:37:33;21.92;;;11.73;;
61144;SDS011;47026;51.208;3.288;2022-10-31T19:40:04;23.08;;;12.60;;
61144;SDS011;47026;51.208;3.288;2022-10-31T19:42:32;19.25;;;8.35;;
61144;SDS011;47026;51.208;3.288;2022-10-31T19:44:58;16.92;;;8.55;;
61144;SDS011;47026;51.208;3.288;2022-10-31T19:47:24;16.75;;;8.60;;